UKHH Weather Reports


Display with metric or nautical units.
time (UTC)temp
F
wind
direction
speed
MPH
gust
MPH
rain 1hr
in
rain 24hr
in
rain mn
in
humidity
%
barometer
mb
20210412221142 50 320 2.0 0.0 0.00 0.00 0.00 81 1021.0
20210412211027 48 0 0.0 0.0 0.00 0.00 0.00 87 1021.0
20210412204025 51 0 0.0 0.0 0.00 0.00 0.00 76 1021.0
20210412201035 51 260 2.0 0.0 0.00 0.00 0.00 76 1021.0
20210412194029 51 240 4.0 0.0 0.00 0.00 0.00 76 1021.0
20210412191031 53 240 2.0 0.0 0.00 0.00 0.00 71 1022.0
20210412184030 53 0 0.0 0.0 0.00 0.00 0.00 71 1022.0
20210412181030 55 170 2.0 0.0 0.00 0.00 0.00 71 1022.0
20210412174027 57 200 7.0 0.0 0.00 0.00 0.00 67 1021.0
20210412171047 57 220 9.0 0.0 0.00 0.00 0.00 67 1021.0
20210412164033 59 210 9.0 0.0 0.00 0.00 0.00 62 1021.0
20210412161022 60 180 9.0 0.0 0.00 0.00 0.00 58 1020.0
20210412151043 62 210 9.0 0.0 0.00 0.00 0.00 55 1020.0
20210412144033 64 210 11.0 0.0 0.00 0.00 0.00 51 1020.0
20210412141025 66 160 11.0 0.0 0.00 0.00 0.00 42 1019.0
20210412131034 68 150 13.0 0.0 0.00 0.00 0.00 37 1019.0
20210412124031 68 130 16.0 0.0 0.00 0.00 0.00 37 1019.0
20210412121050 68 140 16.0 0.0 0.00 0.00 0.00 37 1019.0
20210412114026 69 120 18.0 0.0 0.00 0.00 0.00 37 1019.0
20210412111023 68 120 18.0 0.0 0.00 0.00 0.00 39 1019.0
20210412104051 66 110 16.0 0.0 0.00 0.00 0.00 42 1019.0
20210412101022 66 110 16.0 0.0 0.00 0.00 0.00 42 1019.0
20210412094031 62 110 11.0 0.0 0.00 0.00 0.00 51 1019.0
20210412091111 60 80 13.0 0.0 0.00 0.00 0.00 55 1019.0
20210412084233 60 80 13.0 0.0 0.00 0.00 0.00 55 1019.0
20210412074032 57 60 11.0 0.0 0.00 0.00 0.00 62 1020.0
20210412064026 51 60 11.0 0.0 0.00 0.00 0.00 71 1020.0
20210412061043 51 70 13.0 0.0 0.00 0.00 0.00 71 1021.0
20210412054037 51 60 11.0 0.0 0.00 0.00 0.00 66 1021.0
20210412051036 50 60 9.0 0.0 0.00 0.00 0.00 71 1021.0
20210412041032 48 60 11.0 0.0 0.00 0.00 0.00 70 1021.0
20210412034027 48 60 11.0 0.0 0.00 0.00 0.00 66 1022.0
20210412031037 48 60 11.0 0.0 0.00 0.00 0.00 66 1022.0
20210412024026 48 60 11.0 0.0 0.00 0.00 0.00 61 1022.0
20210412021034 48 60 13.0 0.0 0.00 0.00 0.00 61 1022.0
20210412014022 50 50 11.0 0.0 0.00 0.00 0.00 53 1022.0
20210412011101 50 50 11.0 0.0 0.00 0.00 0.00 49 1022.0
20210411234032 51 50 11.0 0.0 0.00 0.00 0.00 43 1023.0
20210411231038 51 40 11.0 0.0 0.00 0.00 0.00 40 1023.0
20210411224036 51 40 11.0 0.0 0.00 0.00 0.00 37 1023.0